Time;durP1;ratioP1;P1;durP2;ratioP2;P2;SDS_P1;SDS_P2;PMS_P1;PMS_P2;Temp;Humidity;BMP_temperature;BMP_pressure;BME280_temperature;BME280_humidity;BME280_pressure;Samples;Min_cycle;Max_cycle;Signal;HPM_P1;HPM_P2
2023/11/13 00:00:04;;;;;;;19.07;11.83;;;;;;;;;;5047332;28;20204;-66
2023/11/13 00:02:29;;;;;;;22.23;13.07;;;;;;;;;;5050985;28;20619;-66
2023/11/13 00:04:54;;;;;;;18.93;11.23;;;;;;;;;;5048186;28;20185;-67
2023/11/13 00:07:19;;;;;;;19.73;12.03;;;;;;;;;;5050844;28;20201;-67
2023/11/13 00:09:45;;;;;;;16.03;11.43;;;;;;;;;;5050029;28;20257;-67
2023/11/13 00:12:10;;;;;;;17.10;10.90;;;;;;;;;;5053047;28;20188;-67
2023/11/13 00:14:35;;;;;;;22.83;12.07;;;;;;;;;;5046188;28;20270;-67
2023/11/13 00:17:01;;;;;;;17.83;11.50;;;;;;;;;;5053040;28;20200;-67
2023/11/13 00:19:26;;;;;;;18.67;11.70;;;;;;;;;;5054148;28;20173;-67
2023/11/13 00:21:51;;;;;;;15.90;10.83;;;;;;;;;;5052269;28;20204;-67
2023/11/13 00:24:17;;;;;;;19.43;11.90;;;;;;;;;;5054150;28;20209;-67
2023/11/13 00:26:42;;;;;;;17.40;10.57;;;;;;;;;;5048608;28;20201;-68
2023/11/13 00:29:07;;;;;;;16.33;11.07;;;;;;;;;;5050757;28;20184;-67
2023/11/13 00:31:33;;;;;;;18.80;11.57;;;;;;;;;;5051819;28;20197;-68
2023/11/13 00:33:58;;;;;;;16.20;10.63;;;;;;;;;;5054583;28;20221;-68
2023/11/13 00:36:23;;;;;;;20.03;11.53;;;;;;;;;;5049374;28;20541;-67
2023/11/13 00:38:48;;;;;;;20.87;11.43;;;;;;;;;;5039451;28;20497;-67
2023/11/13 00:41:13;;;;;;;23.07;11.30;;;;;;;;;;5054142;28;20225;-67
2023/11/13 00:43:39;;;;;;;15.53;10.83;;;;;;;;;;5051393;28;20184;-68
2023/11/13 00:46:05;;;;;;;17.37;10.33;;;;;;;;;;5049483;28;20178;-68
2023/11/13 00:48:31;;;;;;;14.63;10.27;;;;;;;;;;5054721;28;20180;-68
2023/11/13 00:50:56;;;;;;;20.90;11.47;;;;;;;;;;5053428;28;20700;-68
2023/11/13 00:53:21;;;;;;;17.87;11.00;;;;;;;;;;5050556;28;20172;-65
2023/11/13 00:55:47;;;;;;;17.97;10.67;;;;;;;;;;5053097;28;20217;-68
2023/11/13 00:58:12;;;;;;;17.17;11.40;;;;;;;;;;5038073;28;20173;-68
2023/11/13 01:00:37;;;;;;;19.00;10.20;;;;;;;;;;5052547;28;20197;-68
2023/11/13 01:03:04;;;;;;;17.30;9.70;;;;;;;;;;5047726;28;20216;-67
2023/11/13 01:05:30;;;;;;;18.33;10.30;;;;;;;;;;5048379;28;20182;-68
2023/11/13 01:07:55;;;;;;;19.10;11.07;;;;;;;;;;5033630;28;20268;-68
2023/11/13 01:10:21;;;;;;;19.90;11.40;;;;;;;;;;5049540;28;20612;-68
2023/11/13 01:12:46;;;;;;;15.73;10.83;;;;;;;;;;5053295;28;20207;-68
2023/11/13 01:15:12;;;;;;;17.10;10.80;;;;;;;;;;5051631;28;20216;-68
2023/11/13 01:17:37;;;;;;;19.60;10.30;;;;;;;;;;5048411;28;20173;-68
2023/11/13 01:20:06;;;;;;;18.37;10.83;;;;;;;;;;5051228;28;20177;-68
2023/11/13 01:22:31;;;;;;;16.90;10.97;;;;;;;;;;5051399;28;20228;-68
2023/11/13 01:24:57;;;;;;;19.77;10.83;;;;;;;;;;5053486;28;20619;-68
2023/11/13 01:27:22;;;;;;;17.30;10.93;;;;;;;;;;5054910;28;20612;-68
2023/11/13 01:29:48;;;;;;;17.30;10.87;;;;;;;;;;5034658;28;20682;-67
2023/11/13 01:32:13;;;;;;;19.80;11.57;;;;;;;;;;5052937;28;20232;-68
2023/11/13 01:34:38;;;;;;;18.90;11.73;;;;;;;;;;5050766;28;20204;-67
2023/11/13 01:37:04;;;;;;;17.63;11.40;;;;;;;;;;5053563;28;20275;-68
2023/11/13 01:39:29;;;;;;;17.53;11.13;;;;;;;;;;5049800;28;20256;-68
2023/11/13 01:41:54;;;;;;;17.63;11.17;;;;;;;;;;5054474;28;20564;-68
2023/11/13 01:44:19;;;;;;;18.67;11.37;;;;;;;;;;5057497;28;22018;-67
2023/11/13 01:46:45;;;;;;;18.23;10.80;;;;;;;;;;5057877;28;20263;-68
2023/11/13 01:49:10;;;;;;;14.83;10.23;;;;;;;;;;5055321;28;20630;-68
2023/11/13 01:51:35;;;;;;;20.20;10.73;;;;;;;;;;5057582;28;20229;-68
2023/11/13 01:54:01;;;;;;;18.30;11.60;;;;;;;;;;5057895;28;20196;-68
2023/11/13 01:56:27;;;;;;;17.37;10.27;;;;;;;;;;5052898;28;20234;-68
2023/11/13 01:58:54;;;;;;;21.57;11.43;;;;;;;;;;5054830;28;20190;-69
2023/11/13 02:01:20;;;;;;;14.93;10.27;;;;;;;;;;5057555;28;20224;-66
2023/11/13 02:03:48;;;;;;;12.93;9.80;;;;;;;;;;5037106;28;20181;-66
2023/11/13 02:06:14;;;;;;;16.47;9.87;;;;;;;;;;5058028;28;20201;-66
2023/11/13 02:08:39;;;;;;;16.80;11.10;;;;;;;;;;5055100;28;20216;-66
2023/11/13 02:11:06;;;;;;;15.10;9.87;;;;;;;;;;5055987;28;20270;-67
2023/11/13 02:13:31;;;;;;;15.00;9.93;;;;;;;;;;5052258;28;20564;-67
2023/11/13 02:15:57;;;;;;;12.70;9.53;;;;;;;;;;5052467;28;20208;-67
2023/11/13 02:18:22;;;;;;;20.00;10.63;;;;;;;;;;5051781;28;20185;-67
2023/11/13 02:20:47;;;;;;;18.67;10.43;;;;;;;;;;5055984;28;20190;-66
2023/11/13 02:23:16;;;;;;;17.33;10.23;;;;;;;;;;5053832;28;20243;-66
2023/11/13 02:25:45;;;;;;;14.97;10.07;;;;;;;;;;5051080;28;20606;-66
2023/11/13 02:28:11;;;;;;;15.27;11.17;;;;;;;;;;5048439;28;20185;-66
2023/11/13 02:30:36;;;;;;;15.17;9.87;;;;;;;;;;5049703;28;20227;-65
2023/11/13 02:33:03;;;;;;;20.63;10.93;;;;;;;;;;5034197;28;20177;-65
2023/11/13 02:35:28;;;;;;;15.47;10.90;;;;;;;;;;5047972;28;20293;-66
2023/11/13 02:37:53;;;;;;;16.23;9.83;;;;;;;;;;5049157;28;20799;-66
2023/11/13 02:40:18;;;;;;;17.43;10.40;;;;;;;;;;5050964;28;20182;-67
2023/11/13 02:42:43;;;;;;;14.80;9.50;;;;;;;;;;5051774;28;20173;-67
2023/11/13 02:45:09;;;;;;;12.50;9.17;;;;;;;;;;5051598;28;20174;-65
2023/11/13 02:47:34;;;;;;;18.57;10.00;;;;;;;;;;5054213;28;20201;-67
2023/11/13 02:50:00;;;;;;;17.60;9.87;;;;;;;;;;5057071;28;20255;-66
2023/11/13 02:52:25;;;;;;;12.83;9.30;;;;;;;;;;5050104;28;20232;-66
2023/11/13 02:54:52;;;;;;;17.40;9.03;;;;;;;;;;5049456;28;20202;-67
2023/11/13 02:57:17;;;;;;;20.07;9.87;;;;;;;;;;5051198;28;20178;-66
2023/11/13 02:59:43;;;;;;;14.43;9.20;;;;;;;;;;5050142;28;20171;-65
2023/11/13 03:02:08;;;;;;;18.43;9.93;;;;;;;;;;5050667;28;20680;-67
2023/11/13 03:04:33;;;;;;;14.10;8.57;;;;;;;;;;5053183;28;20217;-65
2023/11/13 03:06:58;;;;;;;19.07;9.97;;;;;;;;;;5051589;28;20177;-66
2023/11/13 03:09:23;;;;;;;14.73;9.40;;;;;;;;;;5050956;28;20296;-66
2023/11/13 03:11:49;;;;;;;15.33;9.60;;;;;;;;;;5056501;28;20645;-66
2023/11/13 03:14:14;;;;;;;13.37;8.93;;;;;;;;;;5052694;28;20206;-65
2023/11/13 03:16:39;;;;;;;11.97;8.13;;;;;;;;;;5048688;28;20226;-65
2023/11/13 03:19:04;;;;;;;14.33;10.43;;;;;;;;;;5052767;28;20174;-67
2023/11/13 03:21:30;;;;;;;16.27;9.63;;;;;;;;;;5050328;28;20232;-66
2023/11/13 03:23:55;;;;;;;18.37;10.13;;;;;;;;;;5053400;28;20189;-66
2023/11/13 03:26:20;;;;;;;14.73;8.90;;;;;;;;;;5050887;28;20173;-67
2023/11/13 03:28:45;;;;;;;15.23;10.10;;;;;;;;;;5051698;28;20185;-66
2023/11/13 03:31:11;;;;;;;12.57;9.00;;;;;;;;;;5051870;28;20305;-66
2023/11/13 03:33:36;;;;;;;12.80;8.97;;;;;;;;;;5035309;28;20649;-65
2023/11/13 03:36:01;;;;;;;18.37;9.57;;;;;;;;;;5051777;28;20668;-65
2023/11/13 03:38:26;;;;;;;18.40;9.67;;;;;;;;;;5049078;28;20193;-67
2023/11/13 03:40:51;;;;;;;15.73;9.27;;;;;;;;;;5051604;28;20332;-67
2023/11/13 03:43:17;;;;;;;14.97;9.03;;;;;;;;;;5054368;28;20178;-66
2023/11/13 03:45:42;;;;;;;13.60;9.10;;;;;;;;;;5034405;28;20250;-65
2023/11/13 03:48:08;;;;;;;14.93;8.90;;;;;;;;;;5054427;28;20585;-67
2023/11/13 03:50:33;;;;;;;12.77;8.73;;;;;;;;;;5052381;28;20669;-66
2023/11/13 03:52:58;;;;;;;15.13;8.87;;;;;;;;;;5054668;28;20185;-66
2023/11/13 03:55:23;;;;;;;15.30;9.37;;;;;;;;;;5046782;28;20206;-66
2023/11/13 03:57:48;;;;;;;16.70;9.47;;;;;;;;;;5047249;28;20170;-65
2023/11/13 04:00:14;;;;;;;11.97;8.30;;;;;;;;;;5048336;28;20303;-66
2023/11/13 04:02:39;;;;;;;12.90;8.07;;;;;;;;;;5045890;28;20213;-65
2023/11/13 04:05:06;;;;;;;13.60;9.07;;;;;;;;;;5045626;28;20552;-66
2023/11/13 04:07:31;;;;;;;14.33;9.07;;;;;;;;;;5050413;28;20208;-66
2023/11/13 04:09:58;;;;;;;15.43;9.07;;;;;;;;;;5051496;28;20205;-66
2023/11/13 04:12:23;;;;;;;13.20;8.80;;;;;;;;;;5051909;28;20202;-66
2023/11/13 04:14:48;;;;;;;15.33;9.13;;;;;;;;;;5051035;28;20204;-67
2023/11/13 04:17:14;;;;;;;15.87;10.17;;;;;;;;;;5048355;28;20199;-66
2023/11/13 04:19:40;;;;;;;16.37;9.47;;;;;;;;;;5049528;28;20178;-66
2023/11/13 04:22:06;;;;;;;13.77;9.73;;;;;;;;;;5056811;28;20718;-67
2023/11/13 04:24:31;;;;;;;15.57;9.47;;;;;;;;;;5050590;28;20181;-66
2023/11/13 04:26:56;;;;;;;15.60;9.20;;;;;;;;;;5053044;28;20184;-67
2023/11/13 04:29:22;;;;;;;13.70;9.47;;;;;;;;;;5050656;28;20173;-66
2023/11/13 04:31:47;;;;;;;15.57;9.93;;;;;;;;;;5047289;28;20557;-67
2023/11/13 04:34:12;;;;;;;15.93;9.70;;;;;;;;;;5050449;28;20247;-67
2023/11/13 04:36:41;;;;;;;15.73;9.30;;;;;;;;;;5047885;28;20178;-67
2023/11/13 04:39:09;;;;;;;14.97;9.87;;;;;;;;;;5030360;28;20189;-67
2023/11/13 04:41:34;;;;;;;16.27;9.90;;;;;;;;;;5045922;28;20202;-67
2023/11/13 04:44:00;;;;;;;15.30;9.63;;;;;;;;;;5047912;28;20234;-67
2023/11/13 04:46:25;;;;;;;16.47;8.70;;;;;;;;;;5032247;28;20185;-67
2023/11/13 04:48:51;;;;;;;16.93;10.33;;;;;;;;;;5048640;28;20288;-67
2023/11/13 04:51:16;;;;;;;16.03;10.47;;;;;;;;;;5049222;28;20201;-66
2023/11/13 04:53:41;;;;;;;15.33;10.57;;;;;;;;;;5047911;28;20195;-66
2023/11/13 04:56:08;;;;;;;16.73;9.70;;;;;;;;;;5049889;28;20184;-64
2023/11/13 04:58:34;;;;;;;16.40;10.07;;;;;;;;;;5049723;28;20200;-66
2023/11/13 05:00:59;;;;;;;15.77;9.63;;;;;;;;;;5046309;28;20696;-67
2023/11/13 05:03:24;;;;;;;20.07;10.43;;;;;;;;;;5046198;28;20186;-67
2023/11/13 05:05:49;;;;;;;13.40;9.07;;;;;;;;;;5052899;28;20207;-65
2023/11/13 05:08:15;;;;;;;17.97;10.33;;;;;;;;;;5050758;28;20227;-66
2023/11/13 05:10:40;;;;;;;17.23;10.00;;;;;;;;;;5049829;28;20205;-66
2023/11/13 05:13:07;;;;;;;23.07;10.50;;;;;;;;;;5050419;28;20200;-66
2023/11/13 05:15:32;;;;;;;20.33;11.00;;;;;;;;;;5052183;28;20232;-66
2023/11/13 05:17:58;;;;;;;19.00;10.50;;;;;;;;;;5046216;28;20209;-66
2023/11/13 05:20:23;;;;;;;20.47;12.13;;;;;;;;;;5046073;28;20549;-66
2023/11/13 05:22:48;;;;;;;18.67;11.20;;;;;;;;;;5050989;28;20203;-67
2023/11/13 05:25:14;;;;;;;19.87;10.77;;;;;;;;;;5053225;28;20628;-67
2023/11/13 05:27:39;;;;;;;21.10;12.37;;;;;;;;;;5048569;28;20186;-66
2023/11/13 05:30:07;;;;;;;20.23;11.60;;;;;;;;;;5051169;28;20177;-67
2023/11/13 05:32:32;;;;;;;25.67;12.27;;;;;;;;;;5051604;28;20201;-67
2023/11/13 05:34:57;;;;;;;20.13;10.87;;;;;;;;;;5049949;28;20200;-66
2023/11/13 05:37:23;;;;;;;21.23;12.83;;;;;;;;;;5045184;28;20169;-66
2023/11/13 05:39:48;;;;;;;21.60;11.90;;;;;;;;;;5047825;28;20285;-67
2023/11/13 05:42:13;;;;;;;27.30;11.80;;;;;;;;;;5048810;28;20209;-66
2023/11/13 05:44:38;;;;;;;24.13;11.97;;;;;;;;;;5050182;28;20701;-66
2023/11/13 05:47:04;;;;;;;18.77;12.33;;;;;;;;;;5051206;28;20173;-66
2023/11/13 05:49:30;;;;;;;19.27;12.57;;;;;;;;;;5049433;28;20203;-66
2023/11/13 05:51:55;;;;;;;23.23;12.00;;;;;;;;;;5045162;28;20570;-67
2023/11/13 05:54:21;;;;;;;23.00;11.57;;;;;;;;;;5027595;28;20201;-67
2023/11/13 05:56:46;;;;;;;19.57;12.90;;;;;;;;;;5050487;28;20661;-67
2023/11/13 05:59:11;;;;;;;19.43;12.30;;;;;;;;;;5047246;28;20439;-66
2023/11/13 06:01:37;;;;;;;20.10;11.83;;;;;;;;;;5045763;28;20205;-66
2023/11/13 06:04:02;;;;;;;19.90;11.50;;;;;;;;;;5047492;28;20189;-66
2023/11/13 06:06:28;;;;;;;28.70;12.77;;;;;;;;;;5048831;28;20603;-67
2023/11/13 06:08:53;;;;;;;23.77;12.30;;;;;;;;;;5050776;28;20231;-66
2023/11/13 06:11:19;;;;;;;23.67;12.13;;;;;;;;;;5045038;28;20194;-67
2023/11/13 06:13:46;;;;;;;25.17;11.33;;;;;;;;;;5033306;28;20184;-67
2023/11/13 06:16:11;;;;;;;22.07;12.37;;;;;;;;;;5050702;28;20201;-67
2023/11/13 06:18:53;;;;;;;24.27;12.50;;;;;;;;;;5048150;28;20656;-67
2023/11/13 06:21:18;;;;;;;22.93;12.13;;;;;;;;;;5044188;28;20208;-67
2023/11/13 06:23:44;;;;;;;22.27;12.27;;;;;;;;;;5050518;28;20173;-67
2023/11/13 06:26:11;;;;;;;29.50;12.83;;;;;;;;;;5050513;28;20526;-66
2023/11/13 06:28:38;;;;;;;28.03;12.40;;;;;;;;;;5051318;28;20666;-66
2023/11/13 06:31:03;;;;;;;27.47;12.80;;;;;;;;;;5050374;28;20589;-65
2023/11/13 06:33:29;;;;;;;24.83;12.20;;;;;;;;;;5049574;28;20254;-66
2023/11/13 06:35:54;;;;;;;30.87;13.50;;;;;;;;;;5053807;28;20209;-67
2023/11/13 06:38:19;;;;;;;28.20;13.17;;;;;;;;;;5051356;28;20559;-66
2023/11/13 06:40:44;;;;;;;25.47;12.73;;;;;;;;;;5049790;28;20205;-66
2023/11/13 06:43:09;;;;;;;25.27;12.47;;;;;;;;;;5033033;28;20182;-65
2023/11/13 06:45:35;;;;;;;28.97;12.67;;;;;;;;;;5056892;28;20684;-66
2023/11/13 06:48:00;;;;;;;24.83;13.13;;;;;;;;;;5051553;28;20185;-66
2023/11/13 06:50:26;;;;;;;26.43;12.07;;;;;;;;;;5050649;28;20181;-66
2023/11/13 06:52:51;;;;;;;26.10;12.53;;;;;;;;;;5050164;28;20182;-66
2023/11/13 06:55:16;;;;;;;28.93;12.67;;;;;;;;;;5051190;28;20200;-66
2023/11/13 06:57:42;;;;;;;26.07;12.83;;;;;;;;;;5051753;28;20189;-66
2023/11/13 07:00:08;;;;;;;28.87;12.67;;;;;;;;;;5051296;28;20525;-66
2023/11/13 07:02:35;;;;;;;24.20;11.97;;;;;;;;;;5046334;28;21016;-66
2023/11/13 07:05:00;;;;;;;24.47;12.17;;;;;;;;;;5047251;28;20177;-66
2023/11/13 07:07:25;;;;;;;24.43;13.13;;;;;;;;;;5055716;28;20204;-66
2023/11/13 07:09:50;;;;;;;31.17;11.93;;;;;;;;;;5052507;28;20236;-66
2023/11/13 07:12:16;;;;;;;21.67;11.33;;;;;;;;;;5052666;28;20684;-67
2023/11/13 07:14:41;;;;;;;23.90;12.90;;;;;;;;;;5052141;28;20629;-66
2023/11/13 07:17:07;;;;;;;22.63;11.53;;;;;;;;;;5051483;28;20204;-66
2023/11/13 07:19:33;;;;;;;24.83;10.70;;;;;;;;;;5048145;28;20243;-66
2023/11/13 07:21:59;;;;;;;22.87;10.80;;;;;;;;;;5046886;28;20664;-66
2023/11/13 07:24:24;;;;;;;23.00;11.17;;;;;;;;;;5052129;28;20178;-67
2023/11/13 07:26:49;;;;;;;20.27;10.73;;;;;;;;;;5050322;28;20672;-67
2023/11/13 07:29:14;;;;;;;21.80;10.40;;;;;;;;;;5051037;28;20656;-67
2023/11/13 07:31:41;;;;;;;23.10;10.63;;;;;;;;;;5054038;28;20286;-67
2023/11/13 07:34:10;;;;;;;19.33;9.40;;;;;;;;;;5053195;28;20220;-67
2023/11/13 07:36:35;;;;;;;23.40;11.50;;;;;;;;;;5046190;28;20267;-67
2023/11/13 07:39:00;;;;;;;21.70;12.27;;;;;;;;;;5048740;28;20211;-66
2023/11/13 07:41:26;;;;;;;22.97;12.07;;;;;;;;;;5051749;28;20554;-67
2023/11/13 07:43:54;;;;;;;24.37;11.60;;;;;;;;;;5055904;28;20176;-67
2023/11/13 07:46:19;;;;;;;22.63;12.23;;;;;;;;;;5052684;28;21810;-67
2023/11/13 07:48:46;;;;;;;23.23;11.77;;;;;;;;;;5052184;28;20173;-67
2023/11/13 07:51:11;;;;;;;20.77;11.17;;;;;;;;;;5032430;28;20194;-67
2023/11/13 07:53:36;;;;;;;24.33;12.83;;;;;;;;;;5050673;28;20196;-67
2023/11/13 07:56:02;;;;;;;22.20;11.63;;;;;;;;;;5046463;28;20221;-67
2023/11/13 07:58:27;;;;;;;25.20;12.63;;;;;;;;;;5047528;28;20703;-67
2023/11/13 08:00:53;;;;;;;22.87;12.43;;;;;;;;;;5050033;28;20220;-66
2023/11/13 08:03:19;;;;;;;18.53;9.90;;;;;;;;;;5046793;28;20664;-67
2023/11/13 08:05:45;;;;;;;24.60;11.53;;;;;;;;;;5049407;28;20177;-68
2023/11/13 08:08:12;;;;;;;24.50;12.70;;;;;;;;;;5028124;28;20238;-67
2023/11/13 08:10:37;;;;;;;19.60;10.37;;;;;;;;;;5052510;28;20184;-67
2023/11/13 08:13:03;;;;;;;21.37;10.47;;;;;;;;;;5037003;28;20193;-66
2023/11/13 08:15:29;;;;;;;18.53;9.73;;;;;;;;;;5053006;28;20201;-67
2023/11/13 08:17:54;;;;;;;20.90;9.60;;;;;;;;;;5052881;28;20170;-67
2023/11/13 08:20:25;;;;;;;22.90;11.40;;;;;;;;;;5051638;28;20183;-66
2023/11/13 08:22:51;;;;;;;20.83;11.03;;;;;;;;;;5036483;28;21228;-68
2023/11/13 08:25:17;;;;;;;19.80;9.17;;;;;;;;;;5048517;28;20210;-67
2023/11/13 08:27:43;;;;;;;21.53;10.80;;;;;;;;;;5051019;28;20200;-67
2023/11/13 08:30:08;;;;;;;21.93;10.57;;;;;;;;;;5049884;28;20214;-67
2023/11/13 08:32:34;;;;;;;20.07;10.43;;;;;;;;;;5050352;28;20209;-67
2023/11/13 08:35:00;;;;;;;25.67;9.63;;;;;;;;;;5053378;28;20197;-68
2023/11/13 08:37:25;;;;;;;20.40;10.13;;;;;;;;;;5053544;28;20200;-68
2023/11/13 08:39:50;;;;;;;18.87;9.60;;;;;;;;;;5054095;28;20177;-68
2023/11/13 08:42:17;;;;;;;20.87;10.80;;;;;;;;;;5049826;28;20530;-68
2023/11/13 08:44:42;;;;;;;18.23;10.67;;;;;;;;;;5032254;28;20236;-68
2023/11/13 08:47:07;;;;;;;22.77;11.27;;;;;;;;;;5046252;28;20190;-68
2023/11/13 08:49:33;;;;;;;25.63;11.47;;;;;;;;;;5046855;28;20571;-67
2023/11/13 08:52:00;;;;;;;24.30;11.47;;;;;;;;;;5047094;28;20212;-67
2023/11/13 08:54:28;;;;;;;15.57;8.53;;;;;;;;;;5052069;28;20209;-68
2023/11/13 08:56:53;;;;;;;14.75;9.30;;;;;;;;;;5039502;28;20220;-68
2023/11/13 08:59:18;;;;;;;23.93;9.10;;;;;;;;;;5043043;28;20649;-67
2023/11/13 09:01:44;;;;;;;17.48;9.00;;;;;;;;;;5028601;28;20219;-68
2023/11/13 09:04:09;;;;;;;16.98;7.78;;;;;;;;;;5019495;28;20217;-67
2023/11/13 09:06:36;;;;;;;12.73;6.97;;;;;;;;;;5028857;28;20191;-67
2023/11/13 09:09:01;;;;;;;15.80;7.03;;;;;;;;;;5047030;28;20300;-67
2023/11/13 09:11:28;;;;;;;13.25;6.10;;;;;;;;;;5048704;28;20863;-67
2023/11/13 09:13:53;;;;;;;13.97;6.17;;;;;;;;;;5042468;28;20186;-67
2023/11/13 09:16:20;;;;;;;12.48;6.15;;;;;;;;;;5044153;28;20710;-66
2023/11/13 09:18:48;;;;;;;8.20;4.60;;;;;;;;;;5039131;28;20190;-67
2023/11/13 09:21:17;;;;;;;17.35;4.93;;;;;;;;;;5045715;28;20696;-67
2023/11/13 09:23:42;;;;;;;9.85;5.15;;;;;;;;;;5050301;28;20576;-67
2023/11/13 09:26:11;;;;;;;11.57;5.70;;;;;;;;;;5053390;28;20283;-67
2023/11/13 09:28:36;;;;;;;11.30;5.93;;;;;;;;;;5043669;28;20189;-67
2023/11/13 09:31:03;;;;;;;10.45;5.78;;;;;;;;;;5046365;28;21092;-66
2023/11/13 09:33:28;;;;;;;9.07;4.60;;;;;;;;;;5049658;28;20186;-67
2023/11/13 09:35:53;;;;;;;7.50;3.92;;;;;;;;;;5046340;28;20235;-67
2023/11/13 09:38:19;;;;;;;7.63;3.97;;;;;;;;;;5050542;28;20218;-67
2023/11/13 09:40:45;;;;;;;5.35;2.45;;;;;;;;;;5050213;28;20683;-66
2023/11/13 09:43:15;;;;;;;13.68;3.10;;;;;;;;;;5053811;28;20728;-66
2023/11/13 09:45:47;;;;;;;7.90;2.50;;;;;;;;;;5049690;28;20192;-67
2023/11/13 09:48:23;;;;;;;7.43;2.85;;;;;;;;;;5048785;28;20651;-67
2023/11/13 09:50:48;;;;;;;10.05;3.38;;;;;;;;;;5049489;28;20893;-67
2023/11/13 09:53:17;;;;;;;6.37;3.07;;;;;;;;;;5047323;28;20208;-67
2023/11/13 09:55:42;;;;;;;4.15;3.03;;;;;;;;;;5046495;28;20209;-67
2023/11/13 09:58:10;;;;;;;7.97;2.20;;;;;;;;;;5040018;28;20722;-67
2023/11/13 10:00:35;;;;;;;9.30;3.10;;;;;;;;;;5048521;28;20181;-67
2023/11/13 10:03:01;;;;;;;6.37;2.67;;;;;;;;;;5052083;28;20181;-67
2023/11/13 10:05:26;;;;;;;5.10;2.40;;;;;;;;;;5046412;28;20184;-66
2023/11/13 10:07:55;;;;;;;5.63;2.80;;;;;;;;;;5047723;28;20189;-66
2023/11/13 10:10:24;;;;;;;6.67;2.67;;;;;;;;;;5046092;28;20189;-67
2023/11/13 10:13:01;;;;;;;4.43;1.87;;;;;;;;;;5034439;28;20475;-67
2023/11/13 10:15:27;;;;;;;6.30;2.13;;;;;;;;;;5049943;28;20221;-67
2023/11/13 10:17:59;;;;;;;6.80;1.97;;;;;;;;;;5051320;28;20234;-66
2023/11/13 10:20:25;;;;;;;7.27;2.27;;;;;;;;;;5054107;28;20181;-67
2023/11/13 10:23:00;;;;;;;6.90;2.50;;;;;;;;;;5052624;28;20537;-67
2023/11/13 10:25:27;;;;;;;4.13;2.53;;;;;;;;;;5054641;28;20329;-67
2023/11/13 10:27:56;;;;;;;5.07;2.03;;;;;;;;;;5047866;28;20598;-68
2023/11/13 10:30:21;;;;;;;4.77;2.50;;;;;;;;;;5052426;28;20188;-66
2023/11/13 10:32:46;;;;;;;5.67;2.43;;;;;;;;;;5048606;28;20185;-67
2023/11/13 10:35:11;;;;;;;6.80;3.13;;;;;;;;;;5050085;28;20597;-67
2023/11/13 10:37:36;;;;;;;4.85;2.47;;;;;;;;;;5053836;28;20177;-66
2023/11/13 10:40:06;;;;;;;4.63;2.00;;;;;;;;;;5047827;28;20429;-67
2023/11/13 10:42:31;;;;;;;6.03;2.92;;;;;;;;;;5034015;28;20204;-67
2023/11/13 10:45:01;;;;;;;4.10;1.95;;;;;;;;;;5045967;28;20181;-67
2023/11/13 10:47:27;;;;;;;6.70;2.57;;;;;;;;;;5049714;28;20331;-66
2023/11/13 10:49:53;;;;;;;2.15;1.50;;;;;;;;;;5047576;28;20276;-67
2023/11/13 10:52:21;;;;;;;2.35;1.67;;;;;;;;;;5050938;28;20214;-67
2023/11/13 10:54:50;;;;;;;6.82;2.45;;;;;;;;;;5028589;28;20237;-66
2023/11/13 10:57:16;;;;;;;4.57;2.17;;;;;;;;;;5052737;28;20250;-67
2023/11/13 10:59:41;;;;;;;3.95;1.83;;;;;;;;;;5047570;28;20281;-67
2023/11/13 11:02:13;;;;;;;3.93;2.07;;;;;;;;;;5052428;28;20747;-67
2023/11/13 11:04:42;;;;;;;5.55;2.50;;;;;;;;;;5051986;28;20544;-67
2023/11/13 11:07:09;;;;;;;4.93;2.07;;;;;;;;;;5046610;28;20686;-67
2023/11/13 11:09:34;;;;;;;4.53;2.33;;;;;;;;;;5048649;28;20523;-69
2023/11/13 11:12:01;;;;;;;4.35;3.03;;;;;;;;;;5050725;28;21944;-66
2023/11/13 11:14:40;;;;;;;5.78;2.92;;;;;;;;;;5048530;28;20266;-67
2023/11/13 11:17:08;;;;;;;7.65;3.72;;;;;;;;;;5052837;28;20177;-68
2023/11/13 11:19:37;;;;;;;7.38;3.60;;;;;;;;;;5051472;28;20184;-68
2023/11/13 11:22:10;;;;;;;5.88;4.20;;;;;;;;;;5031974;28;20269;-67
2023/11/13 11:24:56;;;;;;;6.60;4.05;;;;;;;;;;5044566;28;20190;-68
2023/11/13 11:27:35;;;;;;;9.75;5.13;;;;;;;;;;5039068;28;20222;-67
2023/11/13 11:30:01;;;;;;;10.05;4.45;;;;;;;;;;5050423;28;20185;-67
2023/11/13 11:32:29;;;;;;;13.70;5.20;;;;;;;;;;5027358;28;21821;-68
2023/11/13 11:35:01;;;;;;;10.27;5.85;;;;;;;;;;5052082;28;20695;-67
2023/11/13 11:37:26;;;;;;;9.90;5.13;;;;;;;;;;5051387;28;20177;-67
2023/11/13 11:39:53;;;;;;;15.13;5.80;;;;;;;;;;5049613;28;20524;-68
2023/11/13 11:42:18;;;;;;;10.77;5.55;;;;;;;;;;5050923;28;20196;-67
2023/11/13 11:44:48;;;;;;;12.77;5.78;;;;;;;;;;5043301;28;20174;-67
2023/11/13 11:47:25;;;;;;;9.45;5.80;;;;;;;;;;5033162;28;20185;-68
2023/11/13 11:49:51;;;;;;;9.55;5.65;;;;;;;;;;5052662;28;20189;-68
2023/11/13 11:52:16;;;;;;;13.35;5.55;;;;;;;;;;5046831;28;20204;-68
2023/11/13 11:54:42;;;;;;;12.18;5.68;;;;;;;;;;5044513;28;20202;-68
2023/11/13 11:57:07;;;;;;;14.80;5.82;;;;;;;;;;5047799;28;20228;-67
2023/11/13 11:59:33;;;;;;;8.82;4.93;;;;;;;;;;5048824;28;20189;-67
2023/11/13 12:01:59;;;;;;;11.20;6.07;;;;;;;;;;5033030;28;20213;-66
2023/11/13 12:04:24;;;;;;;18.95;5.93;;;;;;;;;;5047130;28;20181;-68
2023/11/13 12:06:50;;;;;;;12.40;6.40;;;;;;;;;;5035826;28;20552;-68
2023/11/13 12:09:19;;;;;;;17.48;6.13;;;;;;;;;;5046495;28;20184;-68
2023/11/13 12:11:48;;;;;;;15.48;6.63;;;;;;;;;;5046296;28;20205;-68
2023/11/13 12:14:14;;;;;;;16.23;6.07;;;;;;;;;;5052538;28;20757;-68
2023/11/13 12:16:39;;;;;;;14.88;6.50;;;;;;;;;;5049488;28;20529;-67
2023/11/13 12:19:04;;;;;;;14.23;5.75;;;;;;;;;;5051026;28;20176;-67
2023/11/13 12:21:30;;;;;;;11.52;6.57;;;;;;;;;;5050175;28;20204;-67
2023/11/13 12:23:59;;;;;;;15.77;6.82;;;;;;;;;;5051039;28;20177;-67
2023/11/13 12:26:24;;;;;;;12.05;6.05;;;;;;;;;;5036323;28;20590;-67
2023/11/13 12:28:49;;;;;;;15.85;6.88;;;;;;;;;;5031958;28;20185;-67
2023/11/13 12:31:21;;;;;;;11.60;5.47;;;;;;;;;;5032522;28;20299;-67
2023/11/13 12:33:46;;;;;;;10.40;5.00;;;;;;;;;;5049066;28;20191;-67
2023/11/13 12:36:13;;;;;;;17.70;5.65;;;;;;;;;;5044545;28;20197;-67
2023/11/13 12:38:39;;;;;;;8.57;5.13;;;;;;;;;;5047669;28;20170;-68
2023/11/13 12:41:04;;;;;;;14.73;5.78;;;;;;;;;;5050460;28;20292;-67
2023/11/13 12:43:30;;;;;;;18.02;5.13;;;;;;;;;;5042738;28;20319;-67
2023/11/13 12:45:55;;;;;;;9.18;4.75;;;;;;;;;;5052423;28;20784;-67
2023/11/13 12:48:23;;;;;;;9.55;4.72;;;;;;;;;;5047459;28;20211;-68
2023/11/13 12:50:48;;;;;;;11.63;4.95;;;;;;;;;;5048825;28;20224;-67
2023/11/13 12:53:17;;;;;;;7.97;4.68;;;;;;;;;;5046866;28;20209;-68
2023/11/13 12:55:42;;;;;;;7.88;4.20;;;;;;;;;;5051052;28;20668;-67
2023/11/13 12:58:08;;;;;;;7.43;4.18;;;;;;;;;;5052301;28;20236;-67
2023/11/13 13:00:34;;;;;;;9.52;3.72;;;;;;;;;;5052536;28;20178;-68
2023/11/13 13:02:59;;;;;;;6.90;3.72;;;;;;;;;;5031096;28;20165;-68
2023/11/13 13:05:26;;;;;;;9.95;3.55;;;;;;;;;;5048356;28;20555;-68
2023/11/13 13:07:52;;;;;;;6.90;3.42;;;;;;;;;;5048099;28;20187;-68
2023/11/13 13:10:21;;;;;;;6.70;3.53;;;;;;;;;;5050840;28;20176;-69
2023/11/13 13:12:50;;;;;;;8.85;3.65;;;;;;;;;;5047607;28;20598;-67
2023/11/13 13:15:20;;;;;;;5.10;2.50;;;;;;;;;;5051278;28;20188;-67
2023/11/13 13:17:45;;;;;;;6.95;2.63;;;;;;;;;;5028074;28;20176;-67
2023/11/13 13:20:18;;;;;;;5.65;2.83;;;;;;;;;;5045483;28;20528;-68
2023/11/13 13:22:52;;;;;;;9.48;2.67;;;;;;;;;;5051234;28;20197;-68
2023/11/13 13:25:18;;;;;;;9.70;2.60;;;;;;;;;;5053702;28;20746;-67
2023/11/13 13:27:44;;;;;;;8.38;2.45;;;;;;;;;;5050131;28;20231;-67
2023/11/13 13:30:13;;;;;;;8.23;2.22;;;;;;;;;;5036964;28;20251;-67
2023/11/13 13:32:39;;;;;;;5.85;2.45;;;;;;;;;;5032500;28;20334;-67
2023/11/13 13:35:07;;;;;;;8.30;2.63;;;;;;;;;;5042441;28;20210;-67
2023/11/13 13:37:32;;;;;;;5.32;2.50;;;;;;;;;;5031691;28;20178;-67
2023/11/13 13:39:57;;;;;;;8.43;2.08;;;;;;;;;;5052897;28;20654;-68
2023/11/13 13:42:22;;;;;;;8.88;2.42;;;;;;;;;;5054228;28;20279;-68
2023/11/13 13:44:47;;;;;;;7.25;2.67;;;;;;;;;;5053810;28;20192;-67
2023/11/13 13:47:14;;;;;;;7.68;2.80;;;;;;;;;;5046932;28;20184;-67
2023/11/13 13:49:40;;;;;;;6.93;1.77;;;;;;;;;;5051218;28;20227;-68
2023/11/13 13:52:06;;;;;;;5.65;1.58;;;;;;;;;;5053614;28;20200;-67
2023/11/13 13:54:31;;;;;;;11.30;2.25;;;;;;;;;;5051818;28;20204;-67
2023/11/13 13:56:57;;;;;;;8.75;2.58;;;;;;;;;;5055142;28;20554;-68
2023/11/13 13:59:24;;;;;;;8.13;3.22;;;;;;;;;;5048878;28;20196;-68
2023/11/13 14:01:50;;;;;;;6.50;2.83;;;;;;;;;;5052071;28;20201;-67
2023/11/13 14:04:15;;;;;;;5.15;2.00;;;;;;;;;;5048736;28;20176;-68
2023/11/13 14:06:40;;;;;;;7.97;2.40;;;;;;;;;;5048965;28;20194;-67
2023/11/13 14:09:12;;;;;;;9.82;2.63;;;;;;;;;;5047916;28;20645;-66
2023/11/13 14:11:37;;;;;;;9.40;2.88;;;;;;;;;;5050788;28;20200;-67
2023/11/13 14:14:03;;;;;;;11.25;3.42;;;;;;;;;;5050471;28;20173;-67
2023/11/13 14:16:28;;;;;;;31.58;4.78;;;;;;;;;;5049779;28;20176;-67
2023/11/13 14:18:53;;;;;;;19.02;3.53;;;;;;;;;;5042304;28;20201;-67
2023/11/13 14:21:19;;;;;;;18.65;2.97;;;;;;;;;;5052887;28;20193;-67